LPHR/HOR METAR and TAF weather

Enter ICAO airport designator
Station Type Date Time Source
LPHR METAR 2022/01/28 21:00 UTC NOAA

LPHR 282100Z 05005KT 020V080 9999 FEW018 SCT050 13/07 Q1031


Station Type Date Time Source
LPHR Decoded METAR 2022/01/28 21:00 UTC NOAA

Horta / Castelo Branco Acores , Portugal (LPHR) 38-31N 028-43W 41M
Jan 28, 2022 - 04:00 PM EST / 2022.01.28 2100 UTC
Wind: from the NE (050 degrees) at 6 MPH (5 KT) (direction variable):0
Visibility: greater than 7 mile(s):0
Sky conditions: partly cloudy
Temperature: 55 F (13 C)
Dew Point: 44 F (7 C)
Relative Humidity: 66%
Pressure (altimeter): 30.45 in. Hg (1031 hPa)
ob: LPHR 282100Z 05005KT 020V080 9999 FEW018 SCT050 13/07 Q1031
cycle: 21

Station Type Date Time Source
LPHR TAF 2021/10/07 06:43 UTC NOAA

TAF LPHR 070630Z 0706/0724 33008KT 9999 FEW015 SCT030 PROB30
TEMPO 0706/0712 5000 SHRA SCT006 BKN012 FEW015CB

Example: see airport list